Aviation Digital Data Service (ADDS)

Output produced by METARs form (0252 UTC 21 January 2018)
found at http://www.aviationweather.gov/adds/metars/
 
KUNV 210253Z 23006KT 10SM SKC 04/M02 A3006
KUNV 210153Z 23006KT 10SM SKC 04/M02 A3005
KUNV 210053Z 24007KT 10SM SKC 05/M02 A3004
KUNV 202353Z 24008KT 10SM SKC 04/M02 A3004
KUNV 202253Z 24008KT 10SM SKC 05/M02 A3001
KUNV 202153Z 24008KT 10SM SKC 06/M02 A2998
KUNV 202053Z 24010KT 10SM SKC 08/M02 A2995
KUNV 201953Z 26008KT 10SM SKC 07/M02 A2993
KUNV 201853Z 25009KT 10SM SKC 07/M01 A2993
KUNV 201753Z 26013KT 10SM SKC 06/M02 A2993
KUNV 201653Z 26019KT 10SM SKC 06/M03 A2995
KUNV 201553Z 26016G26KT 10SM SKC 05/M03 A2996
KUNV 201453Z 22018KT 10SM SKC 05/M03 A2996
KUNV 201353Z 21014G26KT 10SM SKC 04/M04 A2994
KUNV 201253Z 23013G23KT 10SM SCT100 03/M04 A2992
KUNV 201153Z 21013G23KT 10SM SCT100 03/M04 A2991
KUNV 201053Z 24008G20KT 10SM SKC 03/M04 A2990
KUNV 201035Z AUTO 25010G19KT 10SM CLR 03/M04 A2990 RMK AO2 T00301037
KUNV 201015Z AUTO 25015G20KT 10SM CLR 03/M04 A2989 RMK AO2 T00311038
KUNV 200955Z AUTO 25011KT 10SM CLR 03/M04 A2989 RMK AO2 T00311040
KUNV 200935Z AUTO 24012G16KT 10SM CLR 02/M04 A2989 RMK AO2 T00241041
KUNV 200915Z AUTO 23010KT 10SM CLR 02/M04 A2988 RMK AO2 T00221040
KUNV 200855Z AUTO 23010KT 10SM CLR 02/M04 A2989 RMK AO2 T00221040
KUNV 200835Z AUTO 21007KT 10SM CLR 02/M04 A2988 RMK AO2 T00161042
KUNV 200815Z AUTO 22007KT 10SM CLR 02/M04 A2990 RMK AO2 T00211044
KUNV 200755Z AUTO 23009KT 10SM CLR 02/M05 A2990 RMK AO2 T00201047
KUNV 200735Z AUTO 22008KT 10SM CLR 02/M05 A2989 RMK AO2 T00161054
KUNV 200715Z AUTO 22009KT 10SM CLR 02/M06 A2990 RMK AO2 T00211057
KUNV 200655Z AUTO 22011KT 10SM CLR 01/M06 A2990 RMK AO2 T00121061
KUNV 200635Z AUTO 22010KT 10SM CLR 01/M06 A2990 RMK AO2 T00091065
KUNV 200615Z AUTO 23009KT 10SM CLR 01/M07 A2990 RMK AO2 T00101067
KUNV 200555Z AUTO 22010KT 10SM CLR 01/M07 A2991 RMK AO2 T00111069 10022 20009
KUNV 200535Z AUTO 22009KT 10SM CLR 01/M07 A2991 RMK AO2 T00111068
KUNV 200515Z AUTO 22009KT 10SM CLR 01/M07 A2991 RMK AO2 T00141070
KUNV 200455Z AUTO 21008KT 10SM CLR 02/M07 A2992 RMK AO2 T00201072
KUNV 200435Z AUTO 20009KT 10SM CLR 02/M07 A2993 RMK AO2 T00191071
KUNV 200415Z AUTO 20008KT 10SM CLR 02/M07 A2993 RMK AO2 T00211073
KUNV 200355Z AUTO 21008KT 10SM CLR 02/M07 A2994 RMK AO2 T00201072 400501055
KUNV 200335Z AUTO 21007KT 10SM CLR 02/M07 A2994 RMK AO2 T00161071
KUNV 200315Z AUTO 20007KT 10SM CLR 02/M07 A2994 RMK AO2 T00161072
KUNV 200253Z 23015KT 10SM SKC 02/M07 A2994
KUNV 200153Z 23013KT 10SM SKC 02/M07 A2995
KUNV 200053Z 23010KT 10SM SKC 01/M07 A2996
KUNV 192353Z 23009KT 10SM SKC 01/M07 A2996
KUNV 192253Z 24008KT 10SM SKC 02/M07 A2996
KUNV 192153Z 24012KT 10SM SKC 03/M06 A2996
KUNV 192053Z 26011KT 10SM SKC 04/M06 A2995
KUNV 191953Z 25014KT 10SM SKC 05/M06 A2995
KUNV 191853Z 24012G22KT 10SM SKC 04/M06 A2996
KUNV 191753Z 25010KT 10SM SKC 02/M07 A2999
KUNV 191653Z 24015KT 10SM SKC 01/M08 A3002
KUNV 191553Z 25012KT 10SM SKC 00/M09 A3005
KUNV 191453Z 24012KT 10SM SKC M02/M10 A3006